sensor_id;sensor_type;location;lat;lon;timestamp;P1;durP1;ratioP1;P2;durP2;ratioP2
9304;SDS011;4690;52.422;13.486;2023-07-09T00:05:28;3.83;;;3.53;;
9304;SDS011;4690;52.422;13.486;2023-07-09T00:07:54;4.00;;;3.70;;
9304;SDS011;4690;52.422;13.486;2023-07-09T00:10:20;5.38;;;3.83;;
9304;SDS011;4690;52.422;13.486;2023-07-09T00:12:46;5.00;;;3.50;;
9304;SDS011;4690;52.422;13.486;2023-07-09T00:15:13;4.85;;;3.50;;
9304;SDS011;4690;52.422;13.486;2023-07-09T00:17:41;4.10;;;3.70;;
9304;SDS011;4690;52.422;13.486;2023-07-09T00:20:10;6.22;;;3.55;;
9304;SDS011;4690;52.422;13.486;2023-07-09T00:22:41;4.78;;;3.80;;
9304;SDS011;4690;52.422;13.486;2023-07-09T00:25:13;4.88;;;3.78;;
9304;SDS011;4690;52.422;13.486;2023-07-09T00:27:41;4.50;;;3.58;;
9304;SDS011;4690;52.422;13.486;2023-07-09T00:30:18;3.78;;;3.47;;
9304;SDS011;4690;52.422;13.486;2023-07-09T00:32:50;4.32;;;3.90;;
9304;SDS011;4690;52.422;13.486;2023-07-09T00:35:18;5.75;;;4.25;;
9304;SDS011;4690;52.422;13.486;2023-07-09T00:37:45;4.03;;;3.63;;
9304;SDS011;4690;52.422;13.486;2023-07-09T00:40:18;4.45;;;3.78;;
9304;SDS011;4690;52.422;13.486;2023-07-09T00:42:47;3.90;;;3.50;;
9304;SDS011;4690;52.422;13.486;2023-07-09T00:45:21;4.32;;;3.92;;
9304;SDS011;4690;52.422;13.486;2023-07-09T00:47:54;4.38;;;3.60;;
9304;SDS011;4690;52.422;13.486;2023-07-09T00:50:33;4.15;;;3.70;;
9304;SDS011;4690;52.422;13.486;2023-07-09T00:53:15;3.90;;;3.60;;
9304;SDS011;4690;52.422;13.486;2023-07-09T00:55:52;3.78;;;3.47;;
9304;SDS011;4690;52.422;13.486;2023-07-09T00:58:34;3.83;;;3.50;;
9304;SDS011;4690;52.422;13.486;2023-07-09T01:01:04;3.80;;;3.50;;
9304;SDS011;4690;52.422;13.486;2023-07-09T01:03:50;4.85;;;3.80;;
9304;SDS011;4690;52.422;13.486;2023-07-09T01:06:26;4.20;;;3.80;;
9304;SDS011;4690;52.422;13.486;2023-07-09T01:09:01;4.85;;;3.72;;
9304;SDS011;4690;52.422;13.486;2023-07-09T01:11:29;4.53;;;4.10;;
9304;SDS011;4690;52.422;13.486;2023-07-09T01:13:56;5.78;;;3.75;;
9304;SDS011;4690;52.422;13.486;2023-07-09T01:16:49;4.15;;;3.75;;
9304;SDS011;4690;52.422;13.486;2023-07-09T01:19:23;4.53;;;3.80;;
9304;SDS011;4690;52.422;13.486;2023-07-09T01:21:57;5.80;;;3.97;;
9304;SDS011;4690;52.422;13.486;2023-07-09T01:27:35;3.85;;;3.55;;
9304;SDS011;4690;52.422;13.486;2023-07-09T01:30:12;4.03;;;3.60;;
9304;SDS011;4690;52.422;13.486;2023-07-09T01:33:02;4.07;;;3.78;;
9304;SDS011;4690;52.422;13.486;2023-07-09T01:35:29;4.25;;;3.85;;
9304;SDS011;4690;52.422;13.486;2023-07-09T01:37:59;4.13;;;3.70;;
9304;SDS011;4690;52.422;13.486;2023-07-09T01:40:26;4.57;;;3.97;;
9304;SDS011;4690;52.422;13.486;2023-07-09T01:42:54;4.43;;;3.95;;
9304;SDS011;4690;52.422;13.486;2023-07-09T01:45:23;3.90;;;3.50;;
9304;SDS011;4690;52.422;13.486;2023-07-09T01:47:49;3.85;;;3.55;;
9304;SDS011;4690;52.422;13.486;2023-07-09T01:50:15;4.05;;;3.75;;
9304;SDS011;4690;52.422;13.486;2023-07-09T01:52:42;3.83;;;3.50;;
9304;SDS011;4690;52.422;13.486;2023-07-09T01:55:10;4.10;;;3.72;;
9304;SDS011;4690;52.422;13.486;2023-07-09T01:57:42;4.28;;;3.80;;
9304;SDS011;4690;52.422;13.486;2023-07-09T02:00:09;4.07;;;3.67;;
9304;SDS011;4690;52.422;13.486;2023-07-09T02:02:41;4.40;;;3.90;;
9304;SDS011;4690;52.422;13.486;2023-07-09T02:05:08;4.50;;;4.10;;
9304;SDS011;4690;52.422;13.486;2023-07-09T02:07:36;4.22;;;3.83;;
9304;SDS011;4690;52.422;13.486;2023-07-09T02:10:01;6.68;;;4.25;;
9304;SDS011;4690;52.422;13.486;2023-07-09T02:12:28;4.10;;;3.70;;
9304;SDS011;4690;52.422;13.486;2023-07-09T02:14:54;6.15;;;3.90;;
9304;SDS011;4690;52.422;13.486;2023-07-09T02:17:19;3.95;;;3.65;;
9304;SDS011;4690;52.422;13.486;2023-07-09T02:19:45;6.68;;;4.25;;
9304;SDS011;4690;52.422;13.486;2023-07-09T02:22:11;4.40;;;4.00;;
9304;SDS011;4690;52.422;13.486;2023-07-09T02:24:37;5.65;;;3.90;;
9304;SDS011;4690;52.422;13.486;2023-07-09T02:27:05;4.10;;;3.70;;
9304;SDS011;4690;52.422;13.486;2023-07-09T02:29:35;4.45;;;4.05;;
9304;SDS011;4690;52.422;13.486;2023-07-09T02:32:01;4.00;;;3.70;;
9304;SDS011;4690;52.422;13.486;2023-07-09T02:34:28;4.40;;;4.00;;
9304;SDS011;4690;52.422;13.486;2023-07-09T02:36:56;5.57;;;4.10;;
9304;SDS011;4690;52.422;13.486;2023-07-09T02:39:24;4.65;;;4.18;;
9304;SDS011;4690;52.422;13.486;2023-07-09T02:41:50;6.18;;;4.00;;
9304;SDS011;4690;52.422;13.486;2023-07-09T02:44:17;4.20;;;3.90;;
9304;SDS011;4690;52.422;13.486;2023-07-09T02:46:43;3.80;;;3.50;;
9304;SDS011;4690;52.422;13.486;2023-07-09T02:49:10;4.53;;;4.13;;
9304;SDS011;4690;52.422;13.486;2023-07-09T02:51:38;4.53;;;4.13;;
9304;SDS011;4690;52.422;13.486;2023-07-09T02:54:04;5.47;;;4.40;;
9304;SDS011;4690;52.422;13.486;2023-07-09T02:56:31;4.68;;;4.30;;
9304;SDS011;4690;52.422;13.486;2023-07-09T02:58:57;4.60;;;4.20;;
9304;SDS011;4690;52.422;13.486;2023-07-09T03:01:24;4.28;;;3.88;;
9304;SDS011;4690;52.422;13.486;2023-07-09T03:03:52;3.92;;;3.63;;
9304;SDS011;4690;52.422;13.486;2023-07-09T03:06:22;4.60;;;4.20;;
9304;SDS011;4690;52.422;13.486;2023-07-09T03:08:49;4.65;;;4.25;;
9304;SDS011;4690;52.422;13.486;2023-07-09T03:11:16;4.20;;;3.80;;
9304;SDS011;4690;52.422;13.486;2023-07-09T03:13:43;4.40;;;3.95;;
9304;SDS011;4690;52.422;13.486;2023-07-09T03:16:09;4.65;;;3.97;;
9304;SDS011;4690;52.422;13.486;2023-07-09T03:18:36;4.78;;;4.32;;
9304;SDS011;4690;52.422;13.486;2023-07-09T03:21:02;5.45;;;4.25;;
9304;SDS011;4690;52.422;13.486;2023-07-09T03:23:28;3.90;;;3.60;;
9304;SDS011;4690;52.422;13.486;2023-07-09T03:25:54;4.00;;;3.70;;
9304;SDS011;4690;52.422;13.486;2023-07-09T03:28:22;4.40;;;4.03;;
9304;SDS011;4690;52.422;13.486;2023-07-09T03:30:48;4.13;;;3.78;;
9304;SDS011;4690;52.422;13.486;2023-07-09T03:33:17;4.35;;;3.92;;
9304;SDS011;4690;52.422;13.486;2023-07-09T03:35:43;4.20;;;3.90;;
9304;SDS011;4690;52.422;13.486;2023-07-09T03:38:09;4.70;;;4.30;;
9304;SDS011;4690;52.422;13.486;2023-07-09T03:40:36;5.10;;;4.50;;
9304;SDS011;4690;52.422;13.486;2023-07-09T03:43:03;5.30;;;4.65;;
9304;SDS011;4690;52.422;13.486;2023-07-09T03:45:31;4.65;;;4.25;;
9304;SDS011;4690;52.422;13.486;2023-07-09T03:47:58;4.80;;;4.32;;
9304;SDS011;4690;52.422;13.486;2023-07-09T03:50:24;4.60;;;4.20;;
9304;SDS011;4690;52.422;13.486;2023-07-09T03:52:49;4.93;;;4.53;;
9304;SDS011;4690;52.422;13.486;2023-07-09T03:55:15;5.45;;;4.95;;
9304;SDS011;4690;52.422;13.486;2023-07-09T03:57:41;5.30;;;4.80;;
9304;SDS011;4690;52.422;13.486;2023-07-09T04:00:07;4.97;;;4.47;;
9304;SDS011;4690;52.422;13.486;2023-07-09T04:02:35;5.18;;;4.78;;
9304;SDS011;4690;52.422;13.486;2023-07-09T04:05:05;5.18;;;4.68;;
9304;SDS011;4690;52.422;13.486;2023-07-09T04:07:33;5.38;;;4.82;;
9304;SDS011;4690;52.422;13.486;2023-07-09T04:09:59;5.70;;;5.00;;
9304;SDS011;4690;52.422;13.486;2023-07-09T04:12:26;6.03;;;4.80;;
9304;SDS011;4690;52.422;13.486;2023-07-09T04:14:52;5.32;;;4.85;;
9304;SDS011;4690;52.422;13.486;2023-07-09T04:17:18;5.60;;;4.20;;
9304;SDS011;4690;52.422;13.486;2023-07-09T04:19:44;4.50;;;4.10;;
9304;SDS011;4690;52.422;13.486;2023-07-09T04:22:10;4.63;;;4.22;;
9304;SDS011;4690;52.422;13.486;2023-07-09T04:24:36;4.35;;;3.97;;
9304;SDS011;4690;52.422;13.486;2023-07-09T04:27:02;4.30;;;4.00;;
9304;SDS011;4690;52.422;13.486;2023-07-09T04:29:29;6.13;;;4.65;;
9304;SDS011;4690;52.422;13.486;2023-07-09T04:31:58;4.40;;;4.00;;
9304;SDS011;4690;52.422;13.486;2023-07-09T04:34:25;6.80;;;4.72;;
9304;SDS011;4690;52.422;13.486;2023-07-09T04:36:50;4.65;;;4.25;;
9304;SDS011;4690;52.422;13.486;2023-07-09T04:39:16;5.25;;;3.97;;
9304;SDS011;4690;52.422;13.486;2023-07-09T04:41:42;4.60;;;4.10;;
9304;SDS011;4690;52.422;13.486;2023-07-09T04:44:08;4.57;;;4.18;;
9304;SDS011;4690;52.422;13.486;2023-07-09T04:46:34;4.72;;;4.28;;
9304;SDS011;4690;52.422;13.486;2023-07-09T04:48:59;5.30;;;4.80;;
9304;SDS011;4690;52.422;13.486;2023-07-09T04:51:26;6.15;;;4.85;;
9304;SDS011;4690;52.422;13.486;2023-07-09T04:53:52;5.03;;;4.53;;
9304;SDS011;4690;52.422;13.486;2023-07-09T04:56:18;6.00;;;4.88;;
9304;SDS011;4690;52.422;13.486;2023-07-09T04:58:44;7.18;;;4.90;;
9304;SDS011;4690;52.422;13.486;2023-07-09T05:01:10;6.85;;;4.70;;
9304;SDS011;4690;52.422;13.486;2023-07-09T05:03:36;5.47;;;4.70;;
9304;SDS011;4690;52.422;13.486;2023-07-09T05:06:03;5.45;;;4.55;;
9304;SDS011;4690;52.422;13.486;2023-07-09T05:08:29;5.20;;;4.70;;
9304;SDS011;4690;52.422;13.486;2023-07-09T05:10:56;5.28;;;4.75;;
9304;SDS011;4690;52.422;13.486;2023-07-09T05:13:23;6.35;;;4.30;;
9304;SDS011;4690;52.422;13.486;2023-07-09T05:15:50;5.07;;;4.57;;
9304;SDS011;4690;52.422;13.486;2023-07-09T05:18:16;4.97;;;4.47;;
9304;SDS011;4690;52.422;13.486;2023-07-09T05:20:43;8.38;;;4.90;;
9304;SDS011;4690;52.422;13.486;2023-07-09T05:23:11;11.25;;;5.78;;
9304;SDS011;4690;52.422;13.486;2023-07-09T05:25:37;12.10;;;5.90;;
9304;SDS011;4690;52.422;13.486;2023-07-09T05:28:03;5.55;;;5.05;;
9304;SDS011;4690;52.422;13.486;2023-07-09T05:30:30;5.88;;;4.85;;
9304;SDS011;4690;52.422;13.486;2023-07-09T05:32:56;5.68;;;4.57;;
9304;SDS011;4690;52.422;13.486;2023-07-09T05:35:25;4.97;;;4.50;;
9304;SDS011;4690;52.422;13.486;2023-07-09T05:37:53;4.78;;;4.22;;
9304;SDS011;4690;52.422;13.486;2023-07-09T05:40:19;4.68;;;4.10;;
9304;SDS011;4690;52.422;13.486;2023-07-09T05:42:47;5.13;;;4.50;;
9304;SDS011;4690;52.422;13.486;2023-07-09T05:45:13;7.15;;;4.30;;
9304;SDS011;4690;52.422;13.486;2023-07-09T05:47:40;4.72;;;4.30;;
9304;SDS011;4690;52.422;13.486;2023-07-09T05:50:06;4.55;;;4.13;;
9304;SDS011;4690;52.422;13.486;2023-07-09T05:52:33;5.03;;;4.60;;
9304;SDS011;4690;52.422;13.486;2023-07-09T05:54:59;5.50;;;4.28;;
9304;SDS011;4690;52.422;13.486;2023-07-09T05:57:25;5.25;;;4.40;;
9304;SDS011;4690;52.422;13.486;2023-07-09T05:59:51;6.70;;;4.30;;
9304;SDS011;4690;52.422;13.486;2023-07-09T06:02:18;5.43;;;4.57;;
9304;SDS011;4690;52.422;13.486;2023-07-09T06:04:46;5.22;;;4.70;;
9304;SDS011;4690;52.422;13.486;2023-07-09T06:07:16;7.15;;;4.47;;
9304;SDS011;4690;52.422;13.486;2023-07-09T06:09:43;5.22;;;4.50;;
9304;SDS011;4690;52.422;13.486;2023-07-09T06:12:11;7.15;;;4.13;;
9304;SDS011;4690;52.422;13.486;2023-07-09T06:14:37;5.30;;;4.32;;
9304;SDS011;4690;52.422;13.486;2023-07-09T06:17:03;6.75;;;4.72;;
9304;SDS011;4690;52.422;13.486;2023-07-09T06:19:29;4.40;;;4.00;;
9304;SDS011;4690;52.422;13.486;2023-07-09T06:21:55;5.40;;;4.30;;
9304;SDS011;4690;52.422;13.486;2023-07-09T06:24:21;5.10;;;4.68;;
9304;SDS011;4690;52.422;13.486;2023-07-09T06:26:47;4.72;;;4.22;;
9304;SDS011;4690;52.422;13.486;2023-07-09T06:29:13;5.50;;;3.88;;
9304;SDS011;4690;52.422;13.486;2023-07-09T06:31:39;4.60;;;4.20;;
9304;SDS011;4690;52.422;13.486;2023-07-09T06:34:07;5.20;;;4.43;;
9304;SDS011;4690;52.422;13.486;2023-07-09T06:36:34;4.57;;;4.20;;
9304;SDS011;4690;52.422;13.486;2023-07-09T06:39:01;5.07;;;4.53;;
9304;SDS011;4690;52.422;13.486;2023-07-09T06:41:27;4.88;;;4.47;;
9304;SDS011;4690;52.422;13.486;2023-07-09T06:43:54;5.68;;;4.75;;
9304;SDS011;4690;52.422;13.486;2023-07-09T06:46:20;5.60;;;4.80;;
9304;SDS011;4690;52.422;13.486;2023-07-09T06:48:46;5.25;;;4.47;;
9304;SDS011;4690;52.422;13.486;2023-07-09T06:51:12;5.65;;;4.82;;
9304;SDS011;4690;52.422;13.486;2023-07-09T06:53:38;5.55;;;4.53;;
9304;SDS011;4690;52.422;13.486;2023-07-09T06:56:09;6.35;;;4.43;;
9304;SDS011;4690;52.422;13.486;2023-07-09T06:58:36;5.85;;;4.20;;
9304;SDS011;4690;52.422;13.486;2023-07-09T07:01:03;5.15;;;4.50;;
9304;SDS011;4690;52.422;13.486;2023-07-09T07:03:30;4.90;;;4.50;;
9304;SDS011;4690;52.422;13.486;2023-07-09T07:05:58;4.88;;;4.38;;
9304;SDS011;4690;52.422;13.486;2023-07-09T07:08:24;6.95;;;4.40;;
9304;SDS011;4690;52.422;13.486;2023-07-09T07:10:54;7.10;;;4.57;;
9304;SDS011;4690;52.422;13.486;2023-07-09T07:13:27;5.63;;;5.00;;
9304;SDS011;4690;52.422;13.486;2023-07-09T07:15:54;4.70;;;4.30;;
9304;SDS011;4690;52.422;13.486;2023-07-09T07:18:20;5.28;;;4.35;;
9304;SDS011;4690;52.422;13.486;2023-07-09T07:20:46;4.60;;;4.20;;
9304;SDS011;4690;52.422;13.486;2023-07-09T07:23:12;4.85;;;4.45;;
9304;SDS011;4690;52.422;13.486;2023-07-09T07:25:38;5.75;;;4.50;;
9304;SDS011;4690;52.422;13.486;2023-07-09T07:28:03;4.80;;;4.38;;
9304;SDS011;4690;52.422;13.486;2023-07-09T07:30:29;6.53;;;4.80;;
9304;SDS011;4690;52.422;13.486;2023-07-09T07:32:55;5.10;;;4.60;;
9304;SDS011;4690;52.422;13.486;2023-07-09T07:35:21;4.80;;;4.40;;
9304;SDS011;4690;52.422;13.486;2023-07-09T07:37:47;5.43;;;4.35;;
9304;SDS011;4690;52.422;13.486;2023-07-09T07:40:12;5.28;;;4.63;;
9304;SDS011;4690;52.422;13.486;2023-07-09T07:42:38;5.32;;;4.82;;
9304;SDS011;4690;52.422;13.486;2023-07-09T07:45:04;5.10;;;4.60;;
9304;SDS011;4690;52.422;13.486;2023-07-09T07:47:32;4.68;;;4.28;;
9304;SDS011;4690;52.422;13.486;2023-07-09T07:49:58;5.72;;;4.68;;
9304;SDS011;4690;52.422;13.486;2023-07-09T07:52:24;4.80;;;4.30;;
9304;SDS011;4690;52.422;13.486;2023-07-09T07:54:51;5.32;;;4.80;;
9304;SDS011;4690;52.422;13.486;2023-07-09T07:57:17;5.22;;;4.45;;
9304;SDS011;4690;52.422;13.486;2023-07-09T07:59:43;5.80;;;4.90;;
9304;SDS011;4690;52.422;13.486;2023-07-09T08:02:11;5.57;;;4.68;;
9304;SDS011;4690;52.422;13.486;2023-07-09T08:04:39;5.40;;;4.90;;
9304;SDS011;4690;52.422;13.486;2023-07-09T08:07:09;4.78;;;4.22;;
9304;SDS011;4690;52.422;13.486;2023-07-09T08:09:36;4.65;;;4.25;;
9304;SDS011;4690;52.422;13.486;2023-07-09T08:12:02;5.18;;;4.63;;
9304;SDS011;4690;52.422;13.486;2023-07-09T08:14:35;5.20;;;4.70;;
9304;SDS011;4690;52.422;13.486;2023-07-09T08:17:01;4.78;;;4.43;;
9304;SDS011;4690;52.422;13.486;2023-07-09T08:19:27;5.57;;;5.07;;
9304;SDS011;4690;52.422;13.486;2023-07-09T08:21:53;5.30;;;4.90;;
9304;SDS011;4690;52.422;13.486;2023-07-09T08:24:19;6.47;;;5.03;;
9304;SDS011;4690;52.422;13.486;2023-07-09T08:26:45;5.05;;;4.65;;
9304;SDS011;4690;52.422;13.486;2023-07-09T08:29:10;4.93;;;4.53;;
9304;SDS011;4690;52.422;13.486;2023-07-09T08:31:36;5.95;;;5.05;;
9304;SDS011;4690;52.422;13.486;2023-07-09T08:34:02;7.00;;;4.78;;
9304;SDS011;4690;52.422;13.486;2023-07-09T08:36:31;5.10;;;4.70;;
9304;SDS011;4690;52.422;13.486;2023-07-09T08:38:57;4.80;;;4.30;;
9304;SDS011;4690;52.422;13.486;2023-07-09T08:41:25;5.18;;;4.70;;
9304;SDS011;4690;52.422;13.486;2023-07-09T08:47:17;5.20;;;4.70;;
9304;SDS011;4690;52.422;13.486;2023-07-09T08:50:09;5.15;;;4.72;;
9304;SDS011;4690;52.422;13.486;2023-07-09T08:52:44;7.57;;;5.38;;
9304;SDS011;4690;52.422;13.486;2023-07-09T08:55:16;6.07;;;4.50;;
9304;SDS011;4690;52.422;13.486;2023-07-09T08:57:46;4.78;;;4.13;;
9304;SDS011;4690;52.422;13.486;2023-07-09T09:00:18;5.72;;;4.90;;
9304;SDS011;4690;52.422;13.486;2023-07-09T09:02:56;5.38;;;4.55;;
9304;SDS011;4690;52.422;13.486;2023-07-09T09:05:30;5.70;;;4.05;;
9304;SDS011;4690;52.422;13.486;2023-07-09T09:08:05;5.57;;;4.07;;
9304;SDS011;4690;52.422;13.486;2023-07-09T09:10:48;4.88;;;4.47;;
9304;SDS011;4690;52.422;13.486;2023-07-09T09:13:43;4.40;;;4.00;;
9304;SDS011;4690;52.422;13.486;2023-07-09T09:16:17;4.50;;;4.20;;
9304;SDS011;4690;52.422;13.486;2023-07-09T09:18:54;4.65;;;4.20;;
9304;SDS011;4690;52.422;13.486;2023-07-09T09:21:29;6.38;;;4.78;;
9304;SDS011;4690;52.422;13.486;2023-07-09T09:24:19;5.43;;;4.60;;
9304;SDS011;4690;52.422;13.486;2023-07-09T09:26:55;7.68;;;4.80;;
9304;SDS011;4690;52.422;13.486;2023-07-09T09:29:24;4.57;;;4.18;;
9304;SDS011;4690;52.422;13.486;2023-07-09T09:31:52;4.70;;;4.20;;
9304;SDS011;4690;52.422;13.486;2023-07-09T09:34:22;4.35;;;4.05;;
9304;SDS011;4690;52.422;13.486;2023-07-09T09:36:52;4.60;;;4.30;;
9304;SDS011;4690;52.422;13.486;2023-07-09T09:39:19;4.88;;;4.45;;
9304;SDS011;4690;52.422;13.486;2023-07-09T09:41:47;5.32;;;4.32;;
9304;SDS011;4690;52.422;13.486;2023-07-09T09:44:20;4.47;;;4.07;;
9304;SDS011;4690;52.422;13.486;2023-07-09T09:46:52;4.70;;;4.30;;
9304;SDS011;4690;52.422;13.486;2023-07-09T09:49:21;4.57;;;4.18;;
9304;SDS011;4690;52.422;13.486;2023-07-09T09:51:47;6.45;;;4.50;;
9304;SDS011;4690;52.422;13.486;2023-07-09T09:54:20;4.65;;;4.25;;
9304;SDS011;4690;52.422;13.486;2023-07-09T09:56:53;5.03;;;4.57;;
9304;SDS011;4690;52.422;13.486;2023-07-09T09:59:20;6.75;;;4.40;;
9304;SDS011;4690;52.422;13.486;2023-07-09T10:01:59;5.43;;;4.70;;
9304;SDS011;4690;52.422;13.486;2023-07-09T10:04:30;5.00;;;4.50;;
9304;SDS011;4690;52.422;13.486;2023-07-09T10:06:58;5.45;;;4.20;;
9304;SDS011;4690;52.422;13.486;2023-07-09T10:09:49;5.00;;;4.60;;
9304;SDS011;4690;52.422;13.486;2023-07-09T10:20:47;4.95;;;4.55;;
9304;SDS011;4690;52.422;13.486;2023-07-09T10:23:37;5.95;;;4.78;;
9304;SDS011;4690;52.422;13.486;2023-07-09T10:32:42;5.82;;;4.78;;
9304;SDS011;4690;52.422;13.486;2023-07-09T10:40:50;5.18;;;4.60;;
9304;SDS011;4690;52.422;13.486;2023-07-09T10:43:25;5.00;;;4.60;;
9304;SDS011;4690;52.422;13.486;2023-07-09T10:46:19;4.60;;;4.20;;
9304;SDS011;4690;52.422;13.486;2023-07-09T10:48:54;5.68;;;5.18;;
9304;SDS011;4690;52.422;13.486;2023-07-09T10:51:31;5.07;;;4.57;;
9304;SDS011;4690;52.422;13.486;2023-07-09T11:00:19;5.05;;;4.65;;
9304;SDS011;4690;52.422;13.486;2023-07-09T11:02:51;5.25;;;4.75;;
9304;SDS011;4690;52.422;13.486;2023-07-09T11:05:27;5.53;;;4.53;;
9304;SDS011;4690;52.422;13.486;2023-07-09T11:07:57;5.43;;;4.78;;
9304;SDS011;4690;52.422;13.486;2023-07-09T11:10:42;6.70;;;5.00;;
9304;SDS011;4690;52.422;13.486;2023-07-09T11:13:26;5.05;;;4.63;;
9304;SDS011;4690;52.422;13.486;2023-07-09T11:16:32;4.90;;;4.50;;
9304;SDS011;4690;52.422;13.486;2023-07-09T11:19:10;6.30;;;5.20;;
9304;SDS011;4690;52.422;13.486;2023-07-09T11:27:31;5.13;;;4.70;;
9304;SDS011;4690;52.422;13.486;2023-07-09T11:29:58;8.13;;;4.85;;
9304;SDS011;4690;52.422;13.486;2023-07-09T11:32:27;5.15;;;4.70;;
9304;SDS011;4690;52.422;13.486;2023-07-09T11:34:54;6.82;;;5.15;;
9304;SDS011;4690;52.422;13.486;2023-07-09T11:37:31;6.15;;;4.80;;
9304;SDS011;4690;52.422;13.486;2023-07-09T11:40:04;9.00;;;4.93;;
9304;SDS011;4690;52.422;13.486;2023-07-09T11:42:46;5.53;;;4.60;;
9304;SDS011;4690;52.422;13.486;2023-07-09T11:45:15;5.28;;;4.88;;
9304;SDS011;4690;52.422;13.486;2023-07-09T11:48:33;5.20;;;4.78;;
9304;SDS011;4690;52.422;13.486;2023-07-09T11:50:44;5.78;;;5.28;;
9304;SDS011;4690;52.422;13.486;2023-07-09T11:56:18;5.60;;;5.10;;
9304;SDS011;4690;52.422;13.486;2023-07-09T11:58:52;8.32;;;4.95;;
9304;SDS011;4690;52.422;13.486;2023-07-09T12:01:29;7.18;;;5.15;;
9304;SDS011;4690;52.422;13.486;2023-07-09T12:04:04;5.35;;;4.85;;
9304;SDS011;4690;52.422;13.486;2023-07-09T12:06:31;6.70;;;5.70;;
9304;SDS011;4690;52.422;13.486;2023-07-09T12:08:59;5.10;;;4.70;;
9304;SDS011;4690;52.422;13.486;2023-07-09T12:11:27;5.60;;;5.10;;
9304;SDS011;4690;52.422;13.486;2023-07-09T12:14:10;5.28;;;4.88;;
9304;SDS011;4690;52.422;13.486;2023-07-09T12:16:40;5.70;;;5.20;;
9304;SDS011;4690;52.422;13.486;2023-07-09T12:19:12;5.07;;;4.68;;
9304;SDS011;4690;52.422;13.486;2023-07-09T12:21:45;4.97;;;4.57;;
9304;SDS011;4690;52.422;13.486;2023-07-09T12:26:43;5.60;;;5.10;;
9304;SDS011;4690;52.422;13.486;2023-07-09T12:29:23;5.25;;;4.85;;
9304;SDS011;4690;52.422;13.486;2023-07-09T12:32:11;5.43;;;5.03;;
9304;SDS011;4690;52.422;13.486;2023-07-09T12:34:42;5.85;;;5.35;;
9304;SDS011;4690;52.422;13.486;2023-07-09T12:37:15;8.05;;;5.50;;
9304;SDS011;4690;52.422;13.486;2023-07-09T12:39:43;6.43;;;5.82;;
9304;SDS011;4690;52.422;13.486;2023-07-09T12:42:14;5.95;;;5.45;;
9304;SDS011;4690;52.422;13.486;2023-07-09T12:44:43;5.70;;;5.20;;
9304;SDS011;4690;52.422;13.486;2023-07-09T12:47:12;5.43;;;4.93;;
9304;SDS011;4690;52.422;13.486;2023-07-09T12:49:40;5.32;;;4.90;;
9304;SDS011;4690;52.422;13.486;2023-07-09T12:52:14;5.80;;;5.20;;
9304;SDS011;4690;52.422;13.486;2023-07-09T12:54:56;6.07;;;5.45;;
9304;SDS011;4690;52.422;13.486;2023-07-09T12:57:27;7.55;;;5.30;;
9304;SDS011;4690;52.422;13.486;2023-07-09T12:59:55;7.07;;;5.00;;
9304;SDS011;4690;52.422;13.486;2023-07-09T13:04:50;5.78;;;5.28;;
9304;SDS011;4690;52.422;13.486;2023-07-09T13:07:35;5.93;;;5.35;;
9304;SDS011;4690;52.422;13.486;2023-07-09T13:10:05;7.13;;;5.38;;
9304;SDS011;4690;52.422;13.486;2023-07-09T13:12:52;5.53;;;5.03;;
9304;SDS011;4690;52.422;13.486;2023-07-09T13:15:26;7.13;;;5.55;;
9304;SDS011;4690;52.422;13.486;2023-07-09T13:18:03;6.38;;;5.88;;
9304;SDS011;4690;52.422;13.486;2023-07-09T13:20:33;5.68;;;5.28;;
9304;SDS011;4690;52.422;13.486;2023-07-09T13:23:07;6.00;;;5.40;;
9304;SDS011;4690;52.422;13.486;2023-07-09T13:25:40;5.88;;;5.18;;
9304;SDS011;4690;52.422;13.486;2023-07-09T13:28:24;5.57;;;5.07;;
9304;SDS011;4690;52.422;13.486;2023-07-09T13:30:59;5.68;;;5.07;;
9304;SDS011;4690;52.422;13.486;2023-07-09T13:33:35;5.22;;;4.82;;
9304;SDS011;4690;52.422;13.486;2023-07-09T13:36:01;6.25;;;5.65;;
9304;SDS011;4690;52.422;13.486;2023-07-09T13:38:28;6.05;;;5.07;;
9304;SDS011;4690;52.422;13.486;2023-07-09T13:40:56;6.72;;;5.10;;
9304;SDS011;4690;52.422;13.486;2023-07-09T13:43:30;5.72;;;5.20;;
9304;SDS011;4690;52.422;13.486;2023-07-09T13:45:59;7.53;;;5.28;;
9304;SDS011;4690;52.422;13.486;2023-07-09T13:48:28;7.20;;;5.07;;
9304;SDS011;4690;52.422;13.486;2023-07-09T13:50:57;5.78;;;5.03;;
9304;SDS011;4690;52.422;13.486;2023-07-09T13:53:25;5.25;;;4.85;;
9304;SDS011;4690;52.422;13.486;2023-07-09T13:55:55;5.88;;;5.28;;
9304;SDS011;4690;52.422;13.486;2023-07-09T13:58:22;5.55;;;5.05;;
9304;SDS011;4690;52.422;13.486;2023-07-09T14:00:54;6.25;;;5.60;;
9304;SDS011;4690;52.422;13.486;2023-07-09T14:03:30;6.30;;;5.70;;
9304;SDS011;4690;52.422;13.486;2023-07-09T14:05:58;5.28;;;4.82;;
9304;SDS011;4690;52.422;13.486;2023-07-09T14:08:24;5.55;;;4.90;;
9304;SDS011;4690;52.422;13.486;2023-07-09T14:10:50;5.88;;;5.40;;
9304;SDS011;4690;52.422;13.486;2023-07-09T14:13:16;5.65;;;5.15;;
9304;SDS011;4690;52.422;13.486;2023-07-09T14:15:47;5.60;;;5.10;;
9304;SDS011;4690;52.422;13.486;2023-07-09T14:18:14;7.22;;;5.20;;
9304;SDS011;4690;52.422;13.486;2023-07-09T14:20:44;6.65;;;5.50;;
9304;SDS011;4690;52.422;13.486;2023-07-09T14:23:11;6.05;;;5.55;;
9304;SDS011;4690;52.422;13.486;2023-07-09T14:25:40;5.72;;;5.22;;
9304;SDS011;4690;52.422;13.486;2023-07-09T14:28:11;5.45;;;5.05;;
9304;SDS011;4690;52.422;13.486;2023-07-09T14:30:46;8.30;;;5.10;;
9304;SDS011;4690;52.422;13.486;2023-07-09T14:33:20;4.97;;;4.57;;
9304;SDS011;4690;52.422;13.486;2023-07-09T14:35:48;5.55;;;5.05;;
9304;SDS011;4690;52.422;13.486;2023-07-09T14:40:45;5.85;;;5.35;;
9304;SDS011;4690;52.422;13.486;2023-07-09T14:43:14;5.85;;;5.25;;
9304;SDS011;4690;52.422;13.486;2023-07-09T14:45:40;5.50;;;5.07;;
9304;SDS011;4690;52.422;13.486;2023-07-09T14:48:13;5.70;;;5.20;;
9304;SDS011;4690;52.422;13.486;2023-07-09T14:50:42;6.00;;;5.50;;
9304;SDS011;4690;52.422;13.486;2023-07-09T14:53:19;6.22;;;5.70;;
9304;SDS011;4690;52.422;13.486;2023-07-09T14:55:51;5.85;;;5.25;;
9304;SDS011;4690;52.422;13.486;2023-07-09T14:58:20;6.13;;;5.60;;
9304;SDS011;4690;52.422;13.486;2023-07-09T15:00:48;5.50;;;5.00;;
9304;SDS011;4690;52.422;13.486;2023-07-09T15:03:18;6.00;;;5.50;;
9304;SDS011;4690;52.422;13.486;2023-07-09T15:05:48;5.97;;;5.28;;
9304;SDS011;4690;52.422;13.486;2023-07-09T15:08:15;5.70;;;5.20;;
9304;SDS011;4690;52.422;13.486;2023-07-09T15:10:46;5.50;;;5.10;;
9304;SDS011;4690;52.422;13.486;2023-07-09T15:15:56;5.20;;;4.80;;
9304;SDS011;4690;52.422;13.486;2023-07-09T15:18:24;8.63;;;6.43;;
9304;SDS011;4690;52.422;13.486;2023-07-09T15:20:54;6.25;;;5.72;;
9304;SDS011;4690;52.422;13.486;2023-07-09T15:23:26;7.30;;;6.03;;
9304;SDS011;4690;52.422;13.486;2023-07-09T15:25:54;5.88;;;5.30;;
9304;SDS011;4690;52.422;13.486;2023-07-09T15:28:21;6.00;;;5.45;;
9304;SDS011;4690;52.422;13.486;2023-07-09T15:30:47;5.80;;;5.20;;
9304;SDS011;4690;52.422;13.486;2023-07-09T15:33:14;5.82;;;5.32;;
9304;SDS011;4690;52.422;13.486;2023-07-09T15:35:43;5.72;;;5.22;;
9304;SDS011;4690;52.422;13.486;2023-07-09T15:40:52;5.45;;;5.05;;
9304;SDS011;4690;52.422;13.486;2023-07-09T15:43:18;5.55;;;5.07;;
9304;SDS011;4690;52.422;13.486;2023-07-09T15:45:45;6.80;;;6.07;;
9304;SDS011;4690;52.422;13.486;2023-07-09T15:48:31;7.10;;;5.38;;
9304;SDS011;4690;52.422;13.486;2023-07-09T15:51:01;5.70;;;5.20;;
9304;SDS011;4690;52.422;13.486;2023-07-09T15:53:29;5.78;;;5.00;;
9304;SDS011;4690;52.422;13.486;2023-07-09T15:56:00;5.38;;;4.88;;
9304;SDS011;4690;52.422;13.486;2023-07-09T15:58:40;7.78;;;5.53;;
9304;SDS011;4690;52.422;13.486;2023-07-09T16:01:12;6.18;;;5.25;;
9304;SDS011;4690;52.422;13.486;2023-07-09T16:03:50;6.47;;;4.85;;
9304;SDS011;4690;52.422;13.486;2023-07-09T16:06:23;6.30;;;5.43;;
9304;SDS011;4690;52.422;13.486;2023-07-09T16:08:49;7.95;;;4.97;;
9304;SDS011;4690;52.422;13.486;2023-07-09T16:11:19;5.95;;;5.40;;
9304;SDS011;4690;52.422;13.486;2023-07-09T16:13:50;6.22;;;5.40;;
9304;SDS011;4690;52.422;13.486;2023-07-09T16:16:21;5.65;;;5.15;;